Time;durP1;ratioP1;P1;durP2;ratioP2;P2;SDS_P1;SDS_P2;PMS_P1;PMS_P2;Temp;Humidity;BMP_temperature;BMP_pressure;BME280_temperature;BME280_humidity;BME280_pressure;Samples;Min_cycle;Max_cycle;Signal;HPM_P1;HPM_P2
2022/11/13 00:01:51;;;;;;;20.63;13.20;;;7.50;99.90;;;;;;5008471;28;20038;-79
2022/11/13 00:04:20;;;;;;;19.13;13.40;;;7.50;99.90;;;;;;5003590;28;20045;-80
2022/11/13 00:06:50;;;;;;;19.23;13.52;;;7.50;99.90;;;;;;5004560;28;20045;-80
2022/11/13 00:09:17;;;;;;;20.45;12.52;;;7.50;99.90;;;;;;5015866;28;20038;-80
2022/11/13 00:11:54;;;;;;;20.00;13.63;;;7.60;99.90;;;;;;5010060;28;20085;-79
2022/11/13 00:14:43;;;;;;;16.80;12.43;;;7.60;99.90;;;;;;5015665;28;20153;-80
2022/11/13 00:17:13;;;;;;;20.67;13.25;;;7.50;99.90;;;;;;5010253;28;20081;-79
2022/11/13 00:19:40;;;;;;;20.25;13.00;;;7.50;99.90;;;;;;5030690;28;20506;-80
2022/11/13 00:22:16;;;;;;;18.90;13.35;;;7.50;99.90;;;;;;5020422;28;20050;-80
2022/11/13 00:24:50;;;;;;;18.52;13.10;;;8.20;99.90;;;;;;5011567;28;20046;-80
2022/11/13 00:27:31;;;;;;;19.02;13.30;;;7.50;99.90;;;;;;5009901;28;20050;-80
2022/11/13 00:29:58;;;;;;;18.90;13.15;;;7.50;99.90;;;;;;5014026;28;20132;-80
2022/11/13 00:32:25;;;;;;;18.58;12.95;;;7.50;99.90;;;;;;5012638;28;20084;-80
2022/11/13 00:34:52;;;;;;;23.52;13.05;;;7.50;99.90;;;;;;5003019;28;20037;-80
2022/11/13 00:37:21;;;;;;;23.33;13.35;;;7.40;99.90;;;;;;4994896;28;20066;-79
2022/11/13 00:39:49;;;;;;;20.00;13.77;;;7.40;99.90;;;;;;5005360;28;20057;-80
2022/11/13 00:42:28;;;;;;;21.52;14.38;;;7.50;99.90;;;;;;5013795;28;20072;-80
2022/11/13 00:44:56;;;;;;;19.35;13.18;;;7.40;99.90;;;;;;5017233;28;20050;-80
2022/11/13 00:47:41;;;;;;;20.77;12.43;;;7.40;99.90;;;;;;5003262;28;20038;-80
2022/11/13 00:50:25;;;;;;;21.52;13.50;;;7.40;99.90;;;;;;5024464;28;20109;-80
2022/11/13 00:53:06;;;;;;;17.88;12.45;;;7.80;99.90;;;;;;5011592;28;20050;-80
2022/11/13 00:55:45;;;;;;;17.13;12.48;;;7.40;99.90;;;;;;4999595;28;20044;-80
2022/11/13 00:58:15;;;;;;;19.13;11.48;;;7.30;99.90;;;;;;5004351;28;20446;-80
2022/11/13 01:00:44;;;;;;;17.20;12.90;;;7.30;99.90;;;;;;5013913;28;20034;-80
2022/11/13 01:03:31;;;;;;;17.77;12.25;;;7.30;99.90;;;;;;5025522;28;20042;-79
2022/11/13 01:06:24;;;;;;;;;;;7.20;99.90;;;;;;5004454;28;20140;-80
2022/11/13 01:08:53;;;;;;;17.48;12.10;;;7.20;99.90;;;;;;4986827;28;19925;-80
2022/11/13 01:11:30;;;;;;;18.60;12.93;;;8.00;99.90;;;;;;5026875;28;20051;-79
2022/11/13 01:14:12;;;;;;;18.15;12.70;;;7.20;99.90;;;;;;5021509;28;20034;-79
2022/11/13 01:16:41;;;;;;;18.50;13.30;;;7.20;99.90;;;;;;4990174;28;20122;-79
2022/11/13 01:19:25;;;;;;;20.40;13.10;;;7.20;99.90;;;;;;5004281;28;20046;-79
2022/11/13 01:21:53;;;;;;;19.27;13.30;;;7.20;99.90;;;;;;5010192;28;20080;-79
2022/11/13 01:24:21;;;;;;;18.90;12.82;;;7.20;99.90;;;;;;4978383;28;20046;-80
2022/11/13 01:26:49;;;;;;;20.42;13.00;;;7.20;99.90;;;;;;4996790;28;20045;-79
2022/11/13 01:29:16;;;;;;;18.58;12.55;;;7.20;99.90;;;;;;5009996;28;20034;-79
2022/11/13 01:32:06;;;;;;;20.25;13.15;;;7.80;99.90;;;;;;5008597;28;20129;-79
2022/11/13 01:34:40;;;;;;;17.30;12.20;;;7.20;99.90;;;;;;5003918;28;20085;-80
2022/11/13 01:37:41;;;;;;;18.38;12.27;;;7.10;99.90;;;;;;5008820;28;20054;-79
2022/11/13 01:40:11;;;;;;;21.08;13.35;;;7.50;99.90;;;;;;5020298;28;20539;-79
2022/11/13 01:42:43;;;;;;;19.27;13.25;;;7.10;99.90;;;;;;5011358;28;20034;-79
2022/11/13 01:45:56;;;;;;;21.70;13.38;;;7.20;99.90;;;;;;5002146;28;20132;-79
2022/11/13 01:49:11;;;;;;;19.45;13.10;;;7.20;99.90;;;;;;4969669;28;20102;-80
2022/11/13 01:52:40;;;;;;;19.08;12.57;;;7.20;99.90;;;;;;4989931;28;20045;-80
2022/11/13 01:55:15;;;;;;;21.27;13.45;;;7.30;99.90;;;;;;4992088;28;20034;-79
2022/11/13 01:58:06;;;;;;;20.88;14.25;;;7.50;99.90;;;;;;5013524;28;20088;-80
2022/11/13 02:00:33;;;;;;;22.60;14.20;;;7.30;99.90;;;;;;5000965;28;20034;-80
2022/11/13 02:03:02;;;;;;;20.88;13.10;;;7.30;99.90;;;;;;4996259;28;20118;-80
2022/11/13 02:05:34;;;;;;;20.15;13.32;;;7.30;99.90;;;;;;4985299;28;20038;-80
2022/11/13 02:08:02;;;;;;;21.83;13.65;;;7.30;99.90;;;;;;4995694;28;20034;-80
2022/11/13 02:10:37;;;;;;;20.20;13.65;;;7.10;99.90;;;;;;4995458;28;20034;-80
2022/11/13 02:13:08;;;;;;;17.75;13.13;;;7.30;99.90;;;;;;5009602;28;20046;-79
2022/11/13 02:15:56;;;;;;;19.75;13.48;;;7.30;99.90;;;;;;5006158;28;20161;-80
2022/11/13 02:18:23;;;;;;;19.92;12.63;;;7.20;99.90;;;;;;5002112;28;20038;-80
2022/11/13 02:21:39;;;;;;;19.13;13.15;;;7.20;99.90;;;;;;5002200;28;20042;-80
2022/11/13 02:24:27;;;;;;;19.90;13.50;;;7.20;99.90;;;;;;4994586;28;20058;-80
2022/11/13 02:27:34;;;;;;;20.23;13.60;;;7.20;99.90;;;;;;5009109;28;20044;-79
2022/11/13 02:30:36;;;;;;;20.60;13.40;;;7.20;99.90;;;;;;4994107;28;20057;-79
2022/11/13 02:33:29;;;;;;;24.52;14.02;;;7.30;99.90;;;;;;5009022;28;20037;-79
2022/11/13 02:35:56;;;;;;;27.63;13.77;;;7.30;99.90;;;;;;4992116;28;20030;-80
2022/11/13 02:38:22;;;;;;;19.30;13.48;;;7.30;99.90;;;;;;5015268;28;20041;-79
2022/11/13 02:40:48;;;;;;;22.85;14.25;;;8.30;99.90;;;;;;5015969;28;20104;-79
2022/11/13 02:43:18;;;;;;;19.80;13.63;;;7.60;99.90;;;;;;5012438;28;20038;-80
2022/11/13 02:45:43;;;;;;;19.05;13.07;;;7.30;99.90;;;;;;5001471;28;20042;-79
2022/11/13 02:48:09;;;;;;;19.15;13.35;;;6.80;99.90;;;;;;4991285;28;20084;-79
2022/11/13 02:50:36;;;;;;;20.60;13.45;;;7.40;99.90;;;;;;5008159;28;20097;-79
2022/11/13 02:53:03;;;;;;;20.60;13.05;;;7.40;99.90;;;;;;5001721;28;20606;-79
2022/11/13 02:55:29;;;;;;;16.83;13.10;;;7.40;99.90;;;;;;5019416;28;20117;-79
2022/11/13 02:57:55;;;;;;;19.77;13.77;;;8.10;99.90;;;;;;5014967;28;20124;-79
2022/11/13 03:00:20;;;;;;;18.15;12.40;;;7.60;99.90;;;;;;5011833;28;20049;-79
2022/11/13 03:02:46;;;;;;;17.92;12.93;;;7.30;99.90;;;;;;5010388;28;20042;-79
2022/11/13 03:05:12;;;;;;;17.90;13.25;;;7.30;99.90;;;;;;5007653;28;20052;-79
2022/11/13 03:07:40;;;;;;;17.98;12.63;;;7.30;99.90;;;;;;5014953;28;20034;-79
2022/11/13 03:10:07;;;;;;;18.13;12.15;;;7.30;99.90;;;;;;5016191;28;20109;-79
2022/11/13 03:12:33;;;;;;;18.77;12.60;;;7.30;99.90;;;;;;5010450;28;20383;-79
2022/11/13 03:14:59;;;;;;;20.83;12.43;;;7.30;99.90;;;;;;5001334;28;20057;-79
2022/11/13 03:17:24;;;;;;;20.15;12.88;;;7.50;99.90;;;;;;5014344;28;20085;-79
2022/11/13 03:19:50;;;;;;;16.70;11.93;;;8.10;99.90;;;;;;5014602;28;20092;-79
2022/11/13 03:22:17;;;;;;;17.15;12.02;;;7.70;99.90;;;;;;5007532;28;20084;-79
2022/11/13 03:24:42;;;;;;;18.58;12.63;;;7.30;99.90;;;;;;5013099;28;20045;-80
2022/11/13 03:27:08;;;;;;;21.20;12.52;;;7.30;99.90;;;;;;5012287;28;20044;-79
2022/11/13 03:29:34;;;;;;;18.80;12.27;;;7.80;99.90;;;;;;5007733;28;20046;-79
2022/11/13 03:32:02;;;;;;;16.40;12.13;;;8.10;99.90;;;;;;4990104;28;20038;-80
2022/11/13 03:34:27;;;;;;;20.45;13.05;;;7.20;99.90;;;;;;5010267;28;20062;-80
2022/11/13 03:36:53;;;;;;;17.67;12.43;;;8.10;99.90;;;;;;5022308;28;20034;-79
2022/11/13 03:39:18;;;;;;;17.30;12.15;;;8.10;99.90;;;;;;5005883;28;20548;-79
2022/11/13 03:41:44;;;;;;;21.90;12.90;;;8.20;99.90;;;;;;4997791;28;20034;-79
2022/11/13 03:44:09;;;;;;;18.30;12.38;;;7.20;99.90;;;;;;5004731;28;20085;-79
2022/11/13 03:46:35;;;;;;;18.20;12.95;;;7.30;99.90;;;;;;4998181;28;20042;-79
2022/11/13 03:49:01;;;;;;;17.55;12.38;;;7.30;99.90;;;;;;5014453;28;20529;-80
2022/11/13 03:51:26;;;;;;;17.13;12.15;;;7.30;99.90;;;;;;5021200;28;20077;-80
2022/11/13 03:53:53;;;;;;;16.67;12.65;;;7.30;99.90;;;;;;4996407;28;20045;-79
2022/11/13 03:56:18;;;;;;;20.65;13.43;;;7.90;99.90;;;;;;5011405;28;20034;-79
2022/11/13 03:58:44;;;;;;;20.48;12.57;;;8.20;99.90;;;;;;5008684;28;20064;-79
2022/11/13 04:01:09;;;;;;;17.02;12.82;;;7.80;99.90;;;;;;5013368;28;20084;-79
2022/11/13 04:03:35;;;;;;;17.50;12.57;;;7.30;99.90;;;;;;5014182;28;20513;-79
2022/11/13 04:06:01;;;;;;;20.40;12.80;;;8.20;99.90;;;;;;5010874;28;20084;-80
2022/11/13 04:08:26;;;;;;;22.13;12.75;;;8.00;99.90;;;;;;5001209;28;20060;-78
2022/11/13 04:10:52;;;;;;;19.67;12.80;;;7.30;99.90;;;;;;5011872;28;20045;-80
2022/11/13 04:13:18;;;;;;;19.60;12.77;;;7.30;99.90;;;;;;4984576;28;20042;-80
2022/11/13 04:15:43;;;;;;;18.05;13.48;;;6.40;99.90;;;;;;4999289;28;20033;-80
2022/11/13 04:18:09;;;;;;;19.88;12.63;;;8.20;99.90;;;;;;5012068;28;20029;-80
2022/11/13 04:20:35;;;;;;;19.77;13.15;;;7.20;99.90;;;;;;5015028;28;20099;-80
2022/11/13 04:23:03;;;;;;;19.70;12.93;;;7.20;99.90;;;;;;5007463;28;20460;-80
2022/11/13 04:25:29;;;;;;;17.70;12.23;;;7.20;99.90;;;;;;5004919;28;20565;-80
2022/11/13 04:27:54;;;;;;;19.17;12.73;;;7.90;99.90;;;;;;5003230;28;20080;-80
2022/11/13 04:30:20;;;;;;;19.55;12.65;;;7.90;99.90;;;;;;5006522;28;20072;-80
2022/11/13 04:32:46;;;;;;;18.10;12.52;;;7.20;99.90;;;;;;5008148;28;20042;-79
2022/11/13 04:35:12;;;;;;;17.80;12.45;;;7.90;99.90;;;;;;5014344;28;20026;-79
2022/11/13 04:37:37;;;;;;;21.92;12.18;;;8.20;99.90;;;;;;4991084;28;20085;-79
2022/11/13 04:40:04;;;;;;;18.10;12.43;;;7.20;99.90;;;;;;5008378;28;20038;-79
2022/11/13 04:42:47;;;;;;;20.55;13.05;;;7.20;99.90;;;;;;5013567;28;20033;-79
2022/11/13 04:45:18;;;;;;;17.58;11.88;;;7.20;99.90;;;;;;5004496;28;20117;-79
2022/11/13 04:47:44;;;;;;;17.10;12.02;;;8.00;99.90;;;;;;5013918;28;20041;-79
2022/11/13 04:50:10;;;;;;;17.60;12.38;;;7.20;99.90;;;;;;5013854;28;20026;-79
2022/11/13 04:52:35;;;;;;;17.73;12.60;;;7.10;99.90;;;;;;5000979;28;20042;-79
2022/11/13 04:55:02;;;;;;;17.63;12.70;;;7.10;99.90;;;;;;4992114;28;20037;-79
2022/11/13 04:57:27;;;;;;;19.33;12.20;;;7.10;99.90;;;;;;5007251;28;20052;-79
2022/11/13 04:59:53;;;;;;;19.08;12.65;;;7.10;99.90;;;;;;5003600;28;20545;-79
2022/11/13 05:02:19;;;;;;;17.67;12.65;;;7.60;99.90;;;;;;5005922;28;20053;-80
2022/11/13 05:04:44;;;;;;;19.95;12.60;;;7.90;99.90;;;;;;5009485;28;20441;-80
2022/11/13 05:07:10;;;;;;;18.25;12.45;;;7.10;99.90;;;;;;5016508;28;20066;-79
2022/11/13 05:09:36;;;;;;;21.85;12.25;;;7.10;99.90;;;;;;5016199;28;20096;-80
2022/11/13 05:12:03;;;;;;;19.50;13.02;;;7.10;99.90;;;;;;5006526;28;20042;-79
2022/11/13 05:14:29;;;;;;;17.10;11.63;;;7.10;99.90;;;;;;5013855;28;20494;-79
2022/11/13 05:16:55;;;;;;;18.58;11.63;;;7.00;99.90;;;;;;5017186;28;20121;-79
2022/11/13 05:19:20;;;;;;;16.95;11.63;;;7.00;99.90;;;;;;4998662;28;20528;-79
2022/11/13 05:21:46;;;;;;;16.38;11.85;;;7.00;99.90;;;;;;5015300;28;20172;-79
2022/11/13 05:24:12;;;;;;;17.05;11.20;;;7.90;99.90;;;;;;5009221;28;20093;-79
2022/11/13 05:26:38;;;;;;;20.25;12.18;;;7.60;99.90;;;;;;5003602;28;20080;-79
2022/11/13 05:29:05;;;;;;;17.88;11.93;;;7.80;99.90;;;;;;5009009;28;20049;-79
2022/11/13 05:31:30;;;;;;;17.58;11.63;;;7.70;99.90;;;;;;5008842;28;20048;-79
2022/11/13 05:33:56;;;;;;;18.83;12.27;;;6.90;99.90;;;;;;4993983;28;20549;-79
2022/11/13 05:36:22;;;;;;;18.40;11.90;;;6.90;99.90;;;;;;5014177;28;20038;-79
2022/11/13 05:38:48;;;;;;;18.15;12.93;;;6.80;99.90;;;;;;5013676;28;20042;-79
2022/11/13 05:41:16;;;;;;;17.60;12.05;;;7.80;99.90;;;;;;5015767;28;20478;-79
2022/11/13 05:43:43;;;;;;;18.90;12.95;;;6.90;99.90;;;;;;5002525;28;20041;-80
2022/11/13 05:46:15;;;;;;;20.52;12.85;;;6.90;99.90;;;;;;5003205;28;20052;-80
2022/11/13 05:48:45;;;;;;;21.15;13.85;;;6.40;99.90;;;;;;5007640;28;20069;-80
2022/11/13 05:51:14;;;;;;;21.52;13.07;;;6.90;99.90;;;;;;5015773;28;20046;-80
2022/11/13 05:53:40;;;;;;;19.52;12.73;;;7.00;99.90;;;;;;5016519;28;20048;-79
2022/11/13 05:56:19;;;;;;;19.08;12.77;;;7.00;99.90;;;;;;4999866;28;20406;-79
2022/11/13 05:58:47;;;;;;;19.88;13.75;;;7.40;99.90;;;;;;5025344;28;20037;-80
2022/11/13 06:01:33;;;;;;;23.77;13.93;;;7.80;99.90;;;;;;5016868;28;20482;-80
2022/11/13 06:04:00;;;;;;;17.88;13.00;;;7.00;99.90;;;;;;5005831;28;20485;-79
2022/11/13 06:06:27;;;;;;;18.65;13.55;;;7.70;99.90;;;;;;5004825;28;20050;-79
2022/11/13 06:08:54;;;;;;;18.50;13.10;;;7.30;99.90;;;;;;5009815;28;20034;-79
2022/11/13 06:11:22;;;;;;;20.42;13.10;;;7.30;99.90;;;;;;5014916;28;20042;-79
2022/11/13 06:13:50;;;;;;;19.20;13.32;;;7.10;99.90;;;;;;5012597;28;20046;-79
2022/11/13 06:16:28;;;;;;;18.88;12.60;;;7.00;99.90;;;;;;5013870;28;20490;-79
2022/11/13 06:18:56;;;;;;;20.40;13.20;;;7.90;99.90;;;;;;5025635;28;20042;-80
2022/11/13 06:21:25;;;;;;;16.55;12.65;;;6.80;99.90;;;;;;5018800;28;20490;-80
2022/11/13 06:23:51;;;;;;;21.27;14.02;;;7.80;99.90;;;;;;5012555;28;20119;-80
2022/11/13 06:26:23;;;;;;;19.23;12.80;;;6.90;99.90;;;;;;5013736;28;20041;-80
2022/11/13 06:28:49;;;;;;;19.20;12.70;;;7.00;99.90;;;;;;5010488;28;20100;-79
2022/11/13 06:31:18;;;;;;;18.63;13.23;;;7.60;99.90;;;;;;5011121;28;20040;-79
2022/11/13 06:33:45;;;;;;;19.77;13.63;;;6.50;99.90;;;;;;5012556;28;20363;-79
2022/11/13 06:36:14;;;;;;;19.05;13.32;;;7.70;99.90;;;;;;5005679;28;20457;-79
2022/11/13 06:38:41;;;;;;;18.52;13.63;;;7.30;99.90;;;;;;5007237;28;20034;-79
2022/11/13 06:41:08;;;;;;;17.70;13.15;;;7.00;99.90;;;;;;5012316;28;20030;-79
2022/11/13 06:43:34;;;;;;;18.45;12.80;;;6.80;99.90;;;;;;5013411;28;20050;-80
2022/11/13 06:46:03;;;;;;;17.25;12.65;;;7.10;99.90;;;;;;5005129;28;20045;-79
2022/11/13 06:48:29;;;;;;;19.58;12.93;;;6.70;99.90;;;;;;5005132;28;20045;-79
2022/11/13 06:51:01;;;;;;;19.98;12.65;;;7.10;99.90;;;;;;4989635;28;20038;-79
2022/11/13 06:53:26;;;;;;;18.23;12.48;;;6.60;99.90;;;;;;5014972;28;20494;-79
2022/11/13 06:55:52;;;;;;;17.58;12.70;;;7.40;99.90;;;;;;5004377;28;20126;-79
2022/11/13 06:58:17;;;;;;;19.55;13.38;;;6.60;99.90;;;;;;5007822;28;20030;-79
2022/11/13 07:00:43;;;;;;;20.02;13.35;;;6.60;99.90;;;;;;5014682;28;20048;-79
2022/11/13 07:03:23;;;;;;;18.67;13.05;;;7.40;99.90;;;;;;5011780;28;20046;-80
2022/11/13 07:05:49;;;;;;;21.08;13.35;;;6.60;99.90;;;;;;5013213;28;20045;-80
2022/11/13 07:08:15;;;;;;;18.75;13.20;;;7.10;99.90;;;;;;5017522;28;20034;-79
2022/11/13 07:10:42;;;;;;;19.45;13.05;;;6.60;99.90;;;;;;5014743;28;20037;-79
2022/11/13 07:13:08;;;;;;;20.92;13.43;;;6.60;99.90;;;;;;5035222;28;20042;-79
2022/11/13 07:15:38;;;;;;;19.60;13.18;;;7.40;99.90;;;;;;5012578;28;20096;-79
2022/11/13 07:18:05;;;;;;;19.73;13.38;;;6.60;99.90;;;;;;5007514;28;20069;-79
2022/11/13 07:20:32;;;;;;;18.70;12.23;;;6.50;99.90;;;;;;5007605;28;20050;-79
2022/11/13 07:22:59;;;;;;;21.83;13.68;;;6.50;99.90;;;;;;5015966;28;20052;-79
2022/11/13 07:25:26;;;;;;;21.05;13.40;;;6.60;99.90;;;;;;5013624;28;20037;-80
2022/11/13 07:27:52;;;;;;;19.75;13.88;;;6.60;99.90;;;;;;5004972;28;20030;-79
2022/11/13 07:30:20;;;;;;;19.20;13.70;;;6.60;99.90;;;;;;5013061;28;20034;-80
2022/11/13 07:32:46;;;;;;;20.20;13.75;;;6.90;99.90;;;;;;5004178;28;20144;-79
2022/11/13 07:35:13;;;;;;;19.35;12.98;;;6.80;99.90;;;;;;4995518;28;20497;-79
2022/11/13 07:37:39;;;;;;;18.08;12.93;;;6.60;99.90;;;;;;5003127;28;20041;-79
2022/11/13 07:40:05;;;;;;;18.83;13.23;;;6.60;99.90;;;;;;5005007;28;20045;-79
2022/11/13 07:42:31;;;;;;;19.30;13.63;;;6.60;99.90;;;;;;5005552;28;20491;-74
2022/11/13 07:44:57;;;;;;;19.10;14.00;;;6.60;99.90;;;;;;5010194;28;20042;-79
2022/11/13 07:47:23;;;;;;;20.02;13.85;;;6.60;99.90;;;;;;5025302;28;20081;-79
2022/11/13 07:49:49;;;;;;;19.05;13.32;;;6.70;99.90;;;;;;5008504;28;20034;-79
2022/11/13 07:52:15;;;;;;;23.20;14.18;;;6.70;99.90;;;;;;5011547;28;20151;-79
2022/11/13 07:54:41;;;;;;;19.52;13.95;;;6.60;99.90;;;;;;5014361;28;20502;-80
2022/11/13 07:57:07;;;;;;;17.52;13.23;;;6.70;99.90;;;;;;5014475;28;20490;-79
2022/11/13 07:59:32;;;;;;;22.30;13.98;;;7.40;99.90;;;;;;5006534;28;20065;-79
2022/11/13 08:01:58;;;;;;;20.35;13.57;;;7.50;99.90;;;;;;5009364;28;20080;-78
2022/11/13 08:04:24;;;;;;;20.38;14.55;;;7.00;99.90;;;;;;4994922;28;20041;-78
2022/11/13 08:06:50;;;;;;;20.80;13.98;;;6.70;99.90;;;;;;5003484;28;20113;-78
2022/11/13 08:09:15;;;;;;;18.83;13.10;;;7.60;99.90;;;;;;5027472;28;20506;-79
2022/11/13 08:11:41;;;;;;;19.38;13.13;;;6.70;99.90;;;;;;4992322;28;20049;-79
2022/11/13 08:14:07;;;;;;;19.98;13.27;;;6.70;99.90;;;;;;4998922;28;20445;-79
2022/11/13 08:16:32;;;;;;;18.00;12.90;;;7.50;99.90;;;;;;5006641;28;20433;-76
2022/11/13 08:18:58;;;;;;;21.02;13.95;;;7.50;99.90;;;;;;4993392;28;20030;-78
2022/11/13 08:21:23;;;;;;;18.98;12.82;;;6.80;99.90;;;;;;5005213;28;20038;-78
2022/11/13 08:23:49;;;;;;;19.33;12.68;;;7.00;99.90;;;;;;4991476;28;20508;-78
2022/11/13 08:26:16;;;;;;;17.30;12.98;;;7.60;99.90;;;;;;5006567;28;20038;-79
2022/11/13 08:28:42;;;;;;;20.92;14.05;;;6.80;99.90;;;;;;5006321;28;20494;-79
2022/11/13 08:31:13;;;;;;;19.30;13.77;;;6.80;99.90;;;;;;5005125;28;20096;-79
2022/11/13 08:33:39;;;;;;;18.85;13.40;;;6.80;99.90;;;;;;4991403;28;20034;-79
2022/11/13 08:36:05;;;;;;;19.45;13.77;;;7.50;99.90;;;;;;5006709;28;20044;-78
2022/11/13 08:38:30;;;;;;;18.60;14.35;;;6.90;99.90;;;;;;5009351;28;20394;-78
2022/11/13 08:41:01;;;;;;;17.80;13.35;;;7.40;99.90;;;;;;5010506;28;20056;-79
2022/11/13 08:43:26;;;;;;;20.15;13.55;;;6.90;99.90;;;;;;5009802;28;20050;-79
2022/11/13 08:45:52;;;;;;;20.83;14.07;;;7.90;99.90;;;;;;5014220;28;20057;-79
2022/11/13 08:48:19;;;;;;;19.55;14.13;;;7.00;99.90;;;;;;4998930;28;20044;-79
2022/11/13 08:50:45;;;;;;;17.80;12.90;;;7.00;99.90;;;;;;5022837;28;20052;-79
2022/11/13 08:53:10;;;;;;;19.60;13.57;;;6.90;99.90;;;;;;5005018;28;20050;-78
2022/11/13 08:55:36;;;;;;;17.08;12.35;;;8.00;99.90;;;;;;5011378;28;20124;-78
2022/11/13 08:58:03;;;;;;;19.70;13.20;;;6.80;99.90;;;;;;4986107;28;20046;-79
2022/11/13 09:00:30;;;;;;;18.52;13.63;;;7.60;99.90;;;;;;5012487;28;20046;-78
2022/11/13 09:02:58;;;;;;;19.58;13.25;;;7.10;99.90;;;;;;5006978;28;20042;-79
2022/11/13 09:05:24;;;;;;;21.27;14.20;;;7.10;99.90;;;;;;5001618;28;20491;-78
2022/11/13 09:07:50;;;;;;;19.77;13.60;;;7.20;99.90;;;;;;5005350;28;20383;-78
2022/11/13 09:10:17;;;;;;;20.30;13.73;;;7.90;99.90;;;;;;5011069;28;20068;-79
2022/11/13 09:12:43;;;;;;;16.75;13.05;;;7.40;99.90;;;;;;4999705;28;20038;-79
2022/11/13 09:15:10;;;;;;;18.88;13.25;;;8.20;99.90;;;;;;5012613;28;20033;-78
2022/11/13 09:17:35;;;;;;;19.08;13.23;;;7.30;99.90;;;;;;4998276;28;20491;-78
2022/11/13 09:20:01;;;;;;;19.77;13.75;;;7.30;99.90;;;;;;4990602;28;20038;-78
2022/11/13 09:22:27;;;;;;;16.77;12.32;;;7.40;99.90;;;;;;4997958;28;20026;-78
2022/11/13 09:24:52;;;;;;;18.25;13.57;;;7.20;99.90;;;;;;4996608;28;20036;-79
2022/11/13 09:27:18;;;;;;;17.98;13.13;;;8.20;99.90;;;;;;4998440;28;20132;-78
2022/11/13 09:29:44;;;;;;;21.52;12.90;;;7.50;99.90;;;;;;4996325;28;20065;-80
2022/11/13 09:32:09;;;;;;;18.35;12.52;;;7.50;99.90;;;;;;5000017;28;20084;-77
2022/11/13 09:34:35;;;;;;;17.25;12.90;;;8.30;99.90;;;;;;4996019;28;20114;-79
2022/11/13 09:37:01;;;;;;;16.05;12.73;;;7.60;99.90;;;;;;4995558;28;20398;-80
2022/11/13 09:39:27;;;;;;;17.95;12.85;;;7.80;99.90;;;;;;4992417;28;20034;-80
2022/11/13 09:41:58;;;;;;;17.38;12.55;;;8.50;99.90;;;;;;5009528;28;20454;-80
2022/11/13 09:44:37;;;;;;;18.15;12.38;;;7.70;99.90;;;;;;5004130;28;20050;-80
2022/11/13 09:47:28;;;;;;;16.35;12.23;;;7.70;99.90;;;;;;5009427;28;20548;-80
2022/11/13 09:50:15;;;;;;;19.92;13.10;;;8.40;99.90;;;;;;5005379;28;20071;-80
2022/11/13 09:52:43;;;;;;;17.92;12.82;;;7.80;99.90;;;;;;5008255;28;20048;-79
2022/11/13 09:55:15;;;;;;;17.77;12.43;;;7.80;99.90;;;;;;5007604;28;20034;-80
2022/11/13 09:57:55;;;;;;;17.52;12.07;;;8.20;99.90;;;;;;5013192;28;20042;-80
2022/11/13 10:00:21;;;;;;;15.18;11.57;;;8.00;99.90;;;;;;5008842;28;20575;-77
2022/11/13 10:03:25;;;;;;;16.00;11.15;;;8.60;99.90;;;;;;5012934;28;20117;-79
2022/11/13 10:06:19;;;;;;;17.08;12.32;;;8.00;99.90;;;;;;5022327;28;20041;-80
2022/11/13 10:09:13;;;;;;;19.67;12.20;;;8.90;99.90;;;;;;4977781;28;20042;-79
2022/11/13 10:11:44;;;;;;;17.52;12.23;;;8.20;99.90;;;;;;5025257;28;20065;-81
2022/11/13 10:14:16;;;;;;;15.13;12.43;;;8.20;99.90;;;;;;4991762;28;20049;-81
2022/11/13 10:16:52;;;;;;;16.27;12.02;;;8.70;99.90;;;;;;5003552;28;20045;-80
2022/11/13 10:19:35;;;;;;;15.95;11.18;;;9.10;99.90;;;;;;4993452;28;20030;-79
2022/11/13 10:22:19;;;;;;;16.05;11.45;;;8.40;99.90;;;;;;4991632;28;20041;-80
2022/11/13 10:24:51;;;;;;;16.13;11.13;;;8.50;99.90;;;;;;5015683;28;20042;-80
2022/11/13 10:27:16;;;;;;;15.23;11.32;;;8.60;99.90;;;;;;4996278;28;20067;-81
2022/11/13 10:29:43;;;;;;;15.20;11.02;;;8.60;99.90;;;;;;5001209;28;20035;-80
2022/11/13 10:32:25;;;;;;;17.20;11.05;;;9.30;99.90;;;;;;5010404;28;20038;-80
2022/11/13 10:35:11;;;;;;;16.05;11.27;;;9.10;99.90;;;;;;5004749;28;20097;-79
2022/11/13 10:37:55;;;;;;;14.88;10.40;;;9.10;99.90;;;;;;5008818;28;20050;-80
2022/11/13 10:40:26;;;;;;;14.80;10.38;;;8.80;99.90;;;;;;4997789;28;20054;-80
2022/11/13 10:42:52;;;;;;;14.63;10.38;;;8.90;99.90;;;;;;5009266;28;20085;-80
2022/11/13 10:45:20;;;;;;;13.00;9.77;;;8.90;99.90;;;;;;5003122;28;20506;-80
2022/11/13 10:47:48;;;;;;;13.15;10.05;;;9.60;99.90;;;;;;5003839;28;20037;-80
2022/11/13 10:50:29;;;;;;;14.52;10.35;;;9.10;99.90;;;;;;5005439;28;20068;-80
2022/11/13 10:52:56;;;;;;;14.20;10.82;;;9.10;99.90;;;;;;5006142;28;20034;-80
2022/11/13 10:55:39;;;;;;;12.88;9.95;;;9.30;99.90;;;;;;4995940;28;20054;-79
2022/11/13 10:58:12;;;;;;;;;;;9.30;99.90;;;;;;5014793;28;20702;-79
2022/11/13 11:00:40;;;;;;;14.02;10.50;;;9.30;99.90;;;;;;5006684;28;19950;-79
2022/11/13 11:03:20;;;;;;;13.82;9.55;;;9.40;99.90;;;;;;5002845;28;20414;-80
2022/11/13 11:05:54;;;;;;;13.65;9.95;;;9.50;99.90;;;;;;5010304;28;20374;-79
2022/11/13 11:08:25;;;;;;;13.80;9.52;;;9.60;99.90;;;;;;5013331;28;20038;-80
2022/11/13 11:13:47;;;;;;;12.65;9.38;;;9.90;99.90;;;;;;5005431;28;20453;-80
2022/11/13 11:16:20;;;;;;;12.68;8.95;;;10.20;99.90;;;;;;4994688;28;20044;-79
2022/11/13 11:19:09;;;;;;;12.63;9.23;;;10.60;99.90;;;;;;5007745;28;20033;-79
2022/11/13 11:21:39;;;;;;;11.82;8.73;;;10.90;99.90;;;;;;5008150;28;20054;-79
2022/11/13 11:24:13;;;;;;;13.68;9.43;;;10.50;99.90;;;;;;5006945;28;20049;-79
2022/11/13 11:27:03;;;;;;;13.00;8.90;;;10.60;99.90;;;;;;5005339;28;20046;-79
2022/11/13 11:29:29;;;;;;;13.35;9.05;;;10.80;99.90;;;;;;4983613;28;20070;-78
2022/11/13 11:32:17;;;;;;;11.93;8.70;;;10.90;99.90;;;;;;5005963;28;20123;-79
2022/11/13 11:35:00;;;;;;;12.18;8.50;;;11.70;99.90;;;;;;5012301;28;20068;-79
2022/11/13 11:37:38;;;;;;;12.57;9.40;;;11.10;99.90;;;;;;5027761;28;20066;-79
2022/11/13 11:40:13;;;;;;;11.23;9.02;;;11.60;99.90;;;;;;5007862;28;20034;-79
2022/11/13 11:43:16;;;;;;;11.82;8.98;;;11.20;99.90;;;;;;5001981;28;20046;-79
2022/11/13 11:45:44;;;;;;;11.70;8.02;;;11.40;99.90;;;;;;4989141;28;20453;-79
2022/11/13 11:48:38;;;;;;;11.98;8.18;;;11.90;99.90;;;;;;5012698;28;20034;-79
2022/11/13 11:51:28;;;;;;;10.88;8.18;;;11.60;99.90;;;;;;4994210;28;20046;-79
2022/11/13 11:54:08;;;;;;;12.80;8.05;;;11.70;99.90;;;;;;5002226;28;20056;-76
2022/11/13 11:56:46;;;;;;;11.70;8.65;;;11.90;99.90;;;;;;5003098;28;20049;-79
2022/11/13 11:59:32;;;;;;;16.25;9.07;;;11.80;99.90;;;;;;5003366;28;20034;-79
2022/11/13 12:02:20;;;;;;;32.33;9.15;;;12.00;99.90;;;;;;4998902;28;20076;-79
2022/11/13 12:05:00;;;;;;;12.10;7.82;;;12.10;99.90;;;;;;5002042;28;20050;-79
2022/11/13 12:07:54;;;;;;;11.98;8.82;;;12.50;99.90;;;;;;5001984;28;20050;-79
2022/11/13 12:10:36;;;;;;;10.80;7.68;;;12.50;99.90;;;;;;4990168;28;20049;-79
2022/11/13 12:13:27;;;;;;;66.87;11.07;;;12.40;99.90;;;;;;4994405;28;20045;-79
2022/11/13 12:16:15;;;;;;;47.42;9.50;;;12.40;99.90;;;;;;5006744;28;20034;-80
2022/11/13 12:19:08;;;;;;;17.13;8.15;;;12.90;99.90;;;;;;4983330;28;20813;-79
2022/11/13 12:21:42;;;;;;;11.38;7.90;;;12.50;99.90;;;;;;5006883;28;20494;-80
2022/11/13 12:24:32;;;;;;;13.85;7.18;;;12.80;99.90;;;;;;5008767;28;20038;-80
2022/11/13 12:27:10;;;;;;;9.75;7.35;;;12.60;99.90;;;;;;5000438;28;20054;-80
2022/11/13 12:29:54;;;;;;;9.88;7.07;;;12.80;99.90;;;;;;4987502;28;20402;-79
2022/11/13 12:32:50;;;;;;;11.23;6.70;;;12.70;99.90;;;;;;5010321;28;20100;-79
2022/11/13 12:35:22;;;;;;;9.55;6.55;;;12.90;99.90;;;;;;5002658;28;20486;-79
2022/11/13 12:38:01;;;;;;;10.10;6.85;;;12.50;99.90;;;;;;4992113;28;20154;-79
2022/11/13 12:40:52;;;;;;;10.65;7.40;;;13.20;99.90;;;;;;4997961;28;20046;-79
2022/11/13 12:43:27;;;;;;;9.73;7.18;;;12.80;99.90;;;;;;4991237;28;20037;-80
2022/11/13 12:45:57;;;;;;;10.02;7.05;;;12.90;99.90;;;;;;4997046;28;20042;-79
2022/11/13 12:48:39;;;;;;;18.52;6.90;;;13.30;99.90;;;;;;5009716;28;20085;-75
2022/11/13 12:51:10;;;;;;;13.25;6.68;;;12.90;99.90;;;;;;4992436;28;20046;-79
2022/11/13 12:53:45;;;;;;;16.40;7.28;;;13.40;99.90;;;;;;5009473;28;20049;-79
2022/11/13 12:56:19;;;;;;;8.43;6.43;;;13.40;99.90;;;;;;5007033;28;20046;-79
2022/11/13 12:58:55;;;;;;;10.38;6.68;;;13.00;99.90;;;;;;5001381;28;20038;-79
2022/11/13 13:01:23;;;;;;;7.28;6.20;;;13.40;99.90;;;;;;4987210;28;20084;-79
2022/11/13 13:04:24;;;;;;;9.45;6.47;;;13.20;99.90;;;;;;5004169;28;20042;-79
2022/11/13 13:06:53;;;;;;;8.52;6.72;;;13.30;99.90;;;;;;5000829;28;20444;-79